Track Тетиков Даниил

Time Latitude Longitude Accuracy (66% radius in meters) Altitude (meters) Speed (km/hour) Bearing (degrees) Battery (%) GPS flag
10:58:48 51.811008 39.391183 8 113.92357213951 0 135.89517211914 79 1 delete
10:58:36 51.811008 39.391183 4 113.82046911393 0 135.89517211914 79 1 delete
10:58:24 51.811008 39.391183 6 113.65955990187 0 135.89517211914 79 1 delete
10:58:12 51.811008 39.391183 6 113.56703161337 0 135.89517211914 79 1 delete
10:58:00 51.811008 39.391183 8 113.45498370793 0 135.89517211914 79 1 delete
10:57:48 51.811008 39.391183 6 113.16020972574 0 135.89517211914 79 1 delete
10:57:36 51.811008 39.391183 12 112.67617510031 0 135.89517211914 79 1 delete
10:57:24 51.811008 39.391183 8 112.46888086176 0 135.89517211914 79 1 delete
10:57:12 51.811008 39.391183 12 112.34377666795 0 135.89517211914 79 1 delete
10:56:51 51.810977 39.391094 4 113.22896001183 0.04342832788825 315.7776184082 79 1 delete
10:56:36 51.811004 39.391115 4 113.18872466122 0.029242526739836 315.7776184082 79 1 delete
10:56:30 51.811007 39.391122 6 113.21586552182 0.065008074045181 315.7776184082 79 1 delete
10:56:12 51.810972 39.391180 6 113.23259939979 0.024458162486553 315.7776184082 79 1 delete
10:56:03 51.810924 39.391195 6 113.15809396384 0.034067496657372 315.7776184082 79 1 delete
10:56:00 51.810926 39.391170 6 113.11707914756 0.042178887873888 315.7776184082 79 1 delete
10:55:57 51.810954 39.391137 8 113.12861039094 0.31199464201927 315.7776184082 79 1 delete
10:55:48 51.811013 39.391073 4 114.26915657994 0.02663210965693 21.036937713623 79 1 delete
10:55:39 51.810990 39.391084 8 115.11241967131 0.2544232904911 193.05187988281 79 1 delete
10:55:36 51.810988 39.391108 12 115.45850789828 0.36458548903465 180.11599731445 79 1 delete
10:55:25 51.810997 39.391106 4 114.71821769358 0 2.7897448539734 79 1 delete
10:55:10 51.810997 39.391106 6 114.25874248177 0 2.7897448539734 79 1 delete
10:54:58 51.810997 39.391106 6 113.90827189009 0 2.7897448539734 79 1 delete
10:54:43 51.810997 39.391106 6 113.47846725479 0 2.7897448539734 79 1 delete
10:54:28 51.810997 39.391106 8 113.07172178865 0 2.7897448539734 79 1 delete
10:54:16 51.810997 39.391106 6 112.60143810753 0 2.7897448539734 79 1 delete
10:53:58 51.810997 39.391106 8 112.40486851792 0.001591831445694 2.7897448539734 79 1 delete
10:53:43 51.810997 39.391106 8 112.67240775656 0 2.7897448539734 79 1 delete
10:53:19 51.810989 39.391107 12 112.6291909799 0 266.86920166016 79 1 delete
10:53:07 51.810989 39.391107 8 112.02932879139 0 266.86920166016 79 1 delete
10:52:49 51.810989 39.391107 6 111.66321425404 0 266.86920166016 79 1 delete
10:52:37 51.810989 39.391107 8 111.63053639488 0 266.86920166016 79 1 delete
10:52:19 51.810989 39.391107 12 111.85451436384 0 266.86920166016 79 1 delete
10:52:07 51.810989 39.391107 8 111.71011494496 0 266.86920166016 79 1 delete
10:51:46 51.810989 39.391107 8 110.83001255904 0 266.86920166016 79 1 delete
10:51:19 51.810989 39.391107 12 110.81827468383 0 266.86920166016 79 1 delete
10:51:04 51.810989 39.391107 8 110.91532596207 0 266.86920166016 79 1 delete
10:50:46 51.810989 39.391107 8 110.72963762077 0 266.86920166016 82 1 delete
10:50:31 51.810989 39.391107 8 110.67209572791 0 266.86920166016 82 1 delete
10:50:19 51.810989 39.391107 8 110.49309995055 0 266.86920166016 82 1 delete
10:49:52 51.810989 39.391107 12 110.16404855631 0 266.86920166016 82 1 delete
10:49:40 51.810989 39.391107 12 110.29170783876 0 266.86920166016 82 1 delete
10:49:25 51.810989 39.391107 12 110.16419525546 0 266.86920166016 82 1 delete
10:49:01 51.810989 39.391107 12 109.9420639187 0 266.86920166016 82 1 delete
10:48:46 51.810989 39.391107 12 109.92473655209 0 266.86920166016 82 1 delete
10:48:31 51.810989 39.391107 6 110.04412054727 0 266.86920166016 82 1 delete
10:48:10 51.810996 39.391101 6 109.86419565584 0 266.86920166016 82 1 delete
10:47:55 51.810996 39.391101 6 109.71401037847 0 266.86920166016 82 1 delete
10:47:43 51.810996 39.391101 8 109.43767754091 0 266.86920166016 82 1 delete
10:47:31 51.810996 39.391101 6 109.31853384577 0 266.86920166016 82 1 delete
10:47:16 51.810996 39.391101 6 109.21403435316 0 266.86920166016 82 1 delete